sensor_id;sensor_type;location;lat;lon;timestamp;temperature;humidity
17807;DHT22;9027;48.938;9.182;2023-02-18T00:01:09;12.90;99.90
17807;DHT22;9027;48.938;9.182;2023-02-18T00:02:40;12.90;99.90
17807;DHT22;9027;48.938;9.182;2023-02-18T00:04:12;12.90;99.90
17807;DHT22;9027;48.938;9.182;2023-02-18T00:05:44;12.90;99.90
17807;DHT22;9027;48.938;9.182;2023-02-18T00:07:17;12.90;99.90
17807;DHT22;9027;48.938;9.182;2023-02-18T00:08:49;12.90;99.90
17807;DHT22;9027;48.938;9.182;2023-02-18T00:10:21;12.90;99.90
17807;DHT22;9027;48.938;9.182;2023-02-18T00:11:52;12.90;99.90
17807;DHT22;9027;48.938;9.182;2023-02-18T00:13:24;12.90;99.90
17807;DHT22;9027;48.938;9.182;2023-02-18T00:14:56;13.00;99.90
17807;DHT22;9027;48.938;9.182;2023-02-18T00:16:29;13.00;99.90
17807;DHT22;9027;48.938;9.182;2023-02-18T00:18:01;13.00;99.90
17807;DHT22;9027;48.938;9.182;2023-02-18T00:19:33;13.00;99.90
17807;DHT22;9027;48.938;9.182;2023-02-18T00:21:06;13.00;99.90
17807;DHT22;9027;48.938;9.182;2023-02-18T00:22:38;12.90;99.90
17807;DHT22;9027;48.938;9.182;2023-02-18T00:24:12;12.90;99.90
17807;DHT22;9027;48.938;9.182;2023-02-18T00:25:45;12.90;99.90
17807;DHT22;9027;48.938;9.182;2023-02-18T00:27:16;12.90;99.90
17807;DHT22;9027;48.938;9.182;2023-02-18T00:28:48;12.90;99.90
17807;DHT22;9027;48.938;9.182;2023-02-18T00:30:21;12.90;99.90
17807;DHT22;9027;48.938;9.182;2023-02-18T00:31:52;12.90;99.90
17807;DHT22;9027;48.938;9.182;2023-02-18T00:33:26;12.90;99.90
17807;DHT22;9027;48.938;9.182;2023-02-18T00:34:57;12.90;99.90
17807;DHT22;9027;48.938;9.182;2023-02-18T00:36:29;12.90;99.90
17807;DHT22;9027;48.938;9.182;2023-02-18T00:38:02;12.90;99.90
17807;DHT22;9027;48.938;9.182;2023-02-18T00:39:33;12.90;99.90
17807;DHT22;9027;48.938;9.182;2023-02-18T00:41:05;12.90;99.90
17807;DHT22;9027;48.938;9.182;2023-02-18T00:42:38;12.90;99.90
17807;DHT22;9027;48.938;9.182;2023-02-18T00:44:10;12.90;99.90
17807;DHT22;9027;48.938;9.182;2023-02-18T00:45:41;12.90;99.90
17807;DHT22;9027;48.938;9.182;2023-02-18T00:47:13;12.80;99.90
17807;DHT22;9027;48.938;9.182;2023-02-18T00:48:44;12.90;99.90
17807;DHT22;9027;48.938;9.182;2023-02-18T00:50:16;12.80;99.90
17807;DHT22;9027;48.938;9.182;2023-02-18T00:51:48;12.90;99.90
17807;DHT22;9027;48.938;9.182;2023-02-18T00:53:21;12.90;99.90
17807;DHT22;9027;48.938;9.182;2023-02-18T00:54:52;12.90;99.90
17807;DHT22;9027;48.938;9.182;2023-02-18T00:56:24;12.90;99.90
17807;DHT22;9027;48.938;9.182;2023-02-18T00:57:55;12.90;99.90
17807;DHT22;9027;48.938;9.182;2023-02-18T00:59:27;12.90;99.90
17807;DHT22;9027;48.938;9.182;2023-02-18T01:00:59;12.90;99.90
17807;DHT22;9027;48.938;9.182;2023-02-18T01:02:30;12.90;99.90
17807;DHT22;9027;48.938;9.182;2023-02-18T01:04:02;12.90;99.90
17807;DHT22;9027;48.938;9.182;2023-02-18T01:05:35;12.90;99.90
17807;DHT22;9027;48.938;9.182;2023-02-18T01:07:10;12.90;99.90
17807;DHT22;9027;48.938;9.182;2023-02-18T01:08:42;13.00;99.90
17807;DHT22;9027;48.938;9.182;2023-02-18T01:10:14;13.00;99.90
17807;DHT22;9027;48.938;9.182;2023-02-18T01:11:46;13.00;99.90
17807;DHT22;9027;48.938;9.182;2023-02-18T01:13:18;13.00;99.90
17807;DHT22;9027;48.938;9.182;2023-02-18T01:14:50;13.00;99.90
17807;DHT22;9027;48.938;9.182;2023-02-18T01:16:22;13.00;99.90
17807;DHT22;9027;48.938;9.182;2023-02-18T01:17:54;13.00;99.90
17807;DHT22;9027;48.938;9.182;2023-02-18T01:19:25;13.00;99.90
17807;DHT22;9027;48.938;9.182;2023-02-18T01:20:57;13.00;99.90
17807;DHT22;9027;48.938;9.182;2023-02-18T01:22:29;13.00;99.90
17807;DHT22;9027;48.938;9.182;2023-02-18T01:24:03;13.00;99.90
17807;DHT22;9027;48.938;9.182;2023-02-18T01:25:35;13.10;99.90
17807;DHT22;9027;48.938;9.182;2023-02-18T01:27:06;13.10;99.90
17807;DHT22;9027;48.938;9.182;2023-02-18T01:28:38;13.10;99.90
17807;DHT22;9027;48.938;9.182;2023-02-18T01:30:14;13.10;99.90
17807;DHT22;9027;48.938;9.182;2023-02-18T01:31:45;13.00;99.90
17807;DHT22;9027;48.938;9.182;2023-02-18T01:33:19;13.00;99.90
17807;DHT22;9027;48.938;9.182;2023-02-18T01:34:50;13.00;99.90
17807;DHT22;9027;48.938;9.182;2023-02-18T01:36:21;13.10;99.90
17807;DHT22;9027;48.938;9.182;2023-02-18T01:37:53;13.10;99.90
17807;DHT22;9027;48.938;9.182;2023-02-18T01:39:26;13.10;99.90
17807;DHT22;9027;48.938;9.182;2023-02-18T01:40:58;13.10;99.90
17807;DHT22;9027;48.938;9.182;2023-02-18T01:42:29;13.10;99.90
17807;DHT22;9027;48.938;9.182;2023-02-18T01:44:12;13.10;99.90
17807;DHT22;9027;48.938;9.182;2023-02-18T01:46:15;13.00;99.90
17807;DHT22;9027;48.938;9.182;2023-02-18T01:47:49;13.00;99.90
17807;DHT22;9027;48.938;9.182;2023-02-18T01:49:23;13.00;99.90
17807;DHT22;9027;48.938;9.182;2023-02-18T01:51:01;12.90;99.90
17807;DHT22;9027;48.938;9.182;2023-02-18T01:52:33;13.00;99.90
17807;DHT22;9027;48.938;9.182;2023-02-18T01:54:08;13.00;99.90
17807;DHT22;9027;48.938;9.182;2023-02-18T01:55:42;13.00;99.90
17807;DHT22;9027;48.938;9.182;2023-02-18T01:57:17;13.00;99.90
17807;DHT22;9027;48.938;9.182;2023-02-18T01:58:53;13.00;99.90
17807;DHT22;9027;48.938;9.182;2023-02-18T02:00:24;13.00;99.90
17807;DHT22;9027;48.938;9.182;2023-02-18T02:01:57;13.00;99.90
17807;DHT22;9027;48.938;9.182;2023-02-18T02:03:29;13.00;99.90
17807;DHT22;9027;48.938;9.182;2023-02-18T02:05:00;12.90;99.90
17807;DHT22;9027;48.938;9.182;2023-02-18T02:06:32;12.90;99.90
17807;DHT22;9027;48.938;9.182;2023-02-18T02:08:03;12.90;99.90
17807;DHT22;9027;48.938;9.182;2023-02-18T02:09:37;12.90;99.90
17807;DHT22;9027;48.938;9.182;2023-02-18T02:11:22;12.90;99.90
17807;DHT22;9027;48.938;9.182;2023-02-18T02:12:58;12.90;99.90
17807;DHT22;9027;48.938;9.182;2023-02-18T02:14:47;12.90;99.90
17807;DHT22;9027;48.938;9.182;2023-02-18T02:16:30;12.90;99.90
17807;DHT22;9027;48.938;9.182;2023-02-18T02:18:17;12.90;99.90
17807;DHT22;9027;48.938;9.182;2023-02-18T02:20:16;12.90;99.90
17807;DHT22;9027;48.938;9.182;2023-02-18T02:26:33;12.90;99.90
17807;DHT22;9027;48.938;9.182;2023-02-18T02:28:48;12.90;99.90
17807;DHT22;9027;48.938;9.182;2023-02-18T02:31:02;12.90;99.90
17807;DHT22;9027;48.938;9.182;2023-02-18T02:33:06;12.80;99.90
17807;DHT22;9027;48.938;9.182;2023-02-18T02:34:48;12.80;99.90
17807;DHT22;9027;48.938;9.182;2023-02-18T02:36:25;12.80;99.90
17807;DHT22;9027;48.938;9.182;2023-02-18T02:38:02;12.90;99.90
17807;DHT22;9027;48.938;9.182;2023-02-18T02:39:39;12.80;99.90
17807;DHT22;9027;48.938;9.182;2023-02-18T02:41:22;12.80;99.90
17807;DHT22;9027;48.938;9.182;2023-02-18T02:43:05;12.80;99.90
17807;DHT22;9027;48.938;9.182;2023-02-18T02:44:45;12.80;99.90
17807;DHT22;9027;48.938;9.182;2023-02-18T02:46:26;12.90;99.90
17807;DHT22;9027;48.938;9.182;2023-02-18T02:48:03;12.90;99.90
17807;DHT22;9027;48.938;9.182;2023-02-18T02:49:44;12.90;99.90
17807;DHT22;9027;48.938;9.182;2023-02-18T02:51:23;12.90;99.90
17807;DHT22;9027;48.938;9.182;2023-02-18T02:52:58;12.90;99.90
17807;DHT22;9027;48.938;9.182;2023-02-18T02:54:31;12.90;99.90
17807;DHT22;9027;48.938;9.182;2023-02-18T02:56:04;12.90;99.90
17807;DHT22;9027;48.938;9.182;2023-02-18T02:57:44;12.90;99.90
17807;DHT22;9027;48.938;9.182;2023-02-18T02:59:24;12.90;99.90
17807;DHT22;9027;48.938;9.182;2023-02-18T03:01:14;12.90;99.90
17807;DHT22;9027;48.938;9.182;2023-02-18T03:05:09;12.90;99.90
17807;DHT22;9027;48.938;9.182;2023-02-18T03:07:13;13.00;99.90
17807;DHT22;9027;48.938;9.182;2023-02-18T03:08:56;13.00;99.90
17807;DHT22;9027;48.938;9.182;2023-02-18T03:10:46;13.00;99.90
17807;DHT22;9027;48.938;9.182;2023-02-18T03:12:24;13.00;99.90
17807;DHT22;9027;48.938;9.182;2023-02-18T03:14:05;13.10;99.90
17807;DHT22;9027;48.938;9.182;2023-02-18T03:15:48;13.10;99.90
17807;DHT22;9027;48.938;9.182;2023-02-18T03:17:24;13.10;99.90
17807;DHT22;9027;48.938;9.182;2023-02-18T03:19:01;13.10;99.90
17807;DHT22;9027;48.938;9.182;2023-02-18T03:20:39;13.00;99.90
17807;DHT22;9027;48.938;9.182;2023-02-18T03:22:15;13.00;99.90
17807;DHT22;9027;48.938;9.182;2023-02-18T03:23:53;13.00;99.90
17807;DHT22;9027;48.938;9.182;2023-02-18T03:25:26;13.00;99.90
17807;DHT22;9027;48.938;9.182;2023-02-18T03:27:02;13.00;99.90
17807;DHT22;9027;48.938;9.182;2023-02-18T03:28:36;13.00;99.90
17807;DHT22;9027;48.938;9.182;2023-02-18T03:30:12;13.00;99.90
17807;DHT22;9027;48.938;9.182;2023-02-18T03:31:48;13.00;99.90
17807;DHT22;9027;48.938;9.182;2023-02-18T03:33:25;13.00;99.90
17807;DHT22;9027;48.938;9.182;2023-02-18T03:35:02;13.00;99.90
17807;DHT22;9027;48.938;9.182;2023-02-18T03:36:38;13.00;99.90
17807;DHT22;9027;48.938;9.182;2023-02-18T03:38:14;13.00;99.90
17807;DHT22;9027;48.938;9.182;2023-02-18T03:39:53;13.00;99.90
17807;DHT22;9027;48.938;9.182;2023-02-18T03:41:26;12.90;99.90
17807;DHT22;9027;48.938;9.182;2023-02-18T03:42:58;12.90;99.90
17807;DHT22;9027;48.938;9.182;2023-02-18T03:44:30;12.80;99.90
17807;DHT22;9027;48.938;9.182;2023-02-18T03:46:03;12.80;99.90
17807;DHT22;9027;48.938;9.182;2023-02-18T03:47:34;12.90;99.90
17807;DHT22;9027;48.938;9.182;2023-02-18T03:49:06;12.80;99.90
17807;DHT22;9027;48.938;9.182;2023-02-18T03:50:39;12.80;99.90
17807;DHT22;9027;48.938;9.182;2023-02-18T03:52:12;12.80;99.90
17807;DHT22;9027;48.938;9.182;2023-02-18T03:53:44;12.80;99.90
17807;DHT22;9027;48.938;9.182;2023-02-18T03:55:17;12.80;99.90
17807;DHT22;9027;48.938;9.182;2023-02-18T03:56:48;12.80;99.90
17807;DHT22;9027;48.938;9.182;2023-02-18T03:58:19;12.70;99.90
17807;DHT22;9027;48.938;9.182;2023-02-18T03:59:51;12.70;99.90
17807;DHT22;9027;48.938;9.182;2023-02-18T04:01:22;12.70;99.90
17807;DHT22;9027;48.938;9.182;2023-02-18T04:02:54;12.60;99.90
17807;DHT22;9027;48.938;9.182;2023-02-18T04:04:26;12.60;99.90
17807;DHT22;9027;48.938;9.182;2023-02-18T04:05:58;12.50;99.90
17807;DHT22;9027;48.938;9.182;2023-02-18T04:07:31;12.50;99.90
17807;DHT22;9027;48.938;9.182;2023-02-18T04:09:03;12.50;99.90
17807;DHT22;9027;48.938;9.182;2023-02-18T04:10:38;12.50;99.90
17807;DHT22;9027;48.938;9.182;2023-02-18T04:12:10;12.50;99.90
17807;DHT22;9027;48.938;9.182;2023-02-18T04:13:41;12.50;99.90
17807;DHT22;9027;48.938;9.182;2023-02-18T04:15:13;12.40;99.90
17807;DHT22;9027;48.938;9.182;2023-02-18T04:16:46;12.40;99.90
17807;DHT22;9027;48.938;9.182;2023-02-18T04:18:16;12.40;99.90
17807;DHT22;9027;48.938;9.182;2023-02-18T04:19:48;12.40;99.90
17807;DHT22;9027;48.938;9.182;2023-02-18T04:21:20;12.40;99.90
17807;DHT22;9027;48.938;9.182;2023-02-18T04:22:52;12.40;99.90
17807;DHT22;9027;48.938;9.182;2023-02-18T04:24:24;12.50;99.90
17807;DHT22;9027;48.938;9.182;2023-02-18T04:25:55;12.40;99.90
17807;DHT22;9027;48.938;9.182;2023-02-18T04:27:27;12.40;99.90
17807;DHT22;9027;48.938;9.182;2023-02-18T04:28:59;12.40;99.90
17807;DHT22;9027;48.938;9.182;2023-02-18T04:30:31;12.40;99.90
17807;DHT22;9027;48.938;9.182;2023-02-18T04:32:02;12.40;99.90
17807;DHT22;9027;48.938;9.182;2023-02-18T04:33:34;12.40;99.90
17807;DHT22;9027;48.938;9.182;2023-02-18T04:35:06;12.40;99.90
17807;DHT22;9027;48.938;9.182;2023-02-18T04:36:38;12.40;99.90
17807;DHT22;9027;48.938;9.182;2023-02-18T04:38:10;12.30;99.90
17807;DHT22;9027;48.938;9.182;2023-02-18T04:39:42;12.30;99.90
17807;DHT22;9027;48.938;9.182;2023-02-18T04:41:14;12.30;99.90
17807;DHT22;9027;48.938;9.182;2023-02-18T04:42:45;12.30;99.90
17807;DHT22;9027;48.938;9.182;2023-02-18T04:44:17;12.30;99.90
17807;DHT22;9027;48.938;9.182;2023-02-18T04:45:48;12.40;99.90
17807;DHT22;9027;48.938;9.182;2023-02-18T04:47:20;12.50;99.90
17807;DHT22;9027;48.938;9.182;2023-02-18T04:48:52;12.50;99.90
17807;DHT22;9027;48.938;9.182;2023-02-18T04:50:23;12.60;99.90
17807;DHT22;9027;48.938;9.182;2023-02-18T04:51:55;12.60;99.90
17807;DHT22;9027;48.938;9.182;2023-02-18T04:53:29;12.60;99.90
17807;DHT22;9027;48.938;9.182;2023-02-18T04:55:00;12.60;99.90
17807;DHT22;9027;48.938;9.182;2023-02-18T04:56:32;12.70;99.90
17807;DHT22;9027;48.938;9.182;2023-02-18T04:58:04;12.70;99.90
17807;DHT22;9027;48.938;9.182;2023-02-18T04:59:36;12.70;99.90
17807;DHT22;9027;48.938;9.182;2023-02-18T05:01:09;12.70;99.90
17807;DHT22;9027;48.938;9.182;2023-02-18T05:02:41;12.70;99.90
17807;DHT22;9027;48.938;9.182;2023-02-18T05:04:12;12.80;99.90
17807;DHT22;9027;48.938;9.182;2023-02-18T05:05:44;12.80;99.90
17807;DHT22;9027;48.938;9.182;2023-02-18T05:07:16;12.80;99.90
17807;DHT22;9027;48.938;9.182;2023-02-18T05:08:49;12.80;99.90
17807;DHT22;9027;48.938;9.182;2023-02-18T05:10:21;12.70;99.90
17807;DHT22;9027;48.938;9.182;2023-02-18T05:11:53;12.70;99.90
17807;DHT22;9027;48.938;9.182;2023-02-18T05:13:25;12.70;99.90
17807;DHT22;9027;48.938;9.182;2023-02-18T05:14:57;12.70;99.90
17807;DHT22;9027;48.938;9.182;2023-02-18T05:16:29;12.70;99.90
17807;DHT22;9027;48.938;9.182;2023-02-18T05:18:00;12.70;99.90
17807;DHT22;9027;48.938;9.182;2023-02-18T05:19:32;12.80;99.90
17807;DHT22;9027;48.938;9.182;2023-02-18T05:21:05;12.80;99.90
17807;DHT22;9027;48.938;9.182;2023-02-18T05:22:36;12.80;99.90
17807;DHT22;9027;48.938;9.182;2023-02-18T05:24:09;12.80;99.90
17807;DHT22;9027;48.938;9.182;2023-02-18T05:25:41;12.80;99.90
17807;DHT22;9027;48.938;9.182;2023-02-18T05:27:13;12.80;99.90
17807;DHT22;9027;48.938;9.182;2023-02-18T05:28:45;12.80;99.90
17807;DHT22;9027;48.938;9.182;2023-02-18T05:30:17;12.80;99.90
17807;DHT22;9027;48.938;9.182;2023-02-18T05:31:48;12.80;99.90
17807;DHT22;9027;48.938;9.182;2023-02-18T05:33:20;12.90;99.90
17807;DHT22;9027;48.938;9.182;2023-02-18T05:34:51;12.90;99.90
17807;DHT22;9027;48.938;9.182;2023-02-18T05:36:23;12.80;99.90
17807;DHT22;9027;48.938;9.182;2023-02-18T05:37:55;12.70;99.90
17807;DHT22;9027;48.938;9.182;2023-02-18T05:39:28;12.70;99.90
17807;DHT22;9027;48.938;9.182;2023-02-18T05:41:00;12.70;99.90
17807;DHT22;9027;48.938;9.182;2023-02-18T05:42:31;12.70;99.90
17807;DHT22;9027;48.938;9.182;2023-02-18T05:44:03;12.60;99.90
17807;DHT22;9027;48.938;9.182;2023-02-18T05:45:52;12.60;99.90
17807;DHT22;9027;48.938;9.182;2023-02-18T05:47:24;12.60;99.90
17807;DHT22;9027;48.938;9.182;2023-02-18T05:48:56;12.60;99.90
17807;DHT22;9027;48.938;9.182;2023-02-18T05:50:28;12.60;99.90
17807;DHT22;9027;48.938;9.182;2023-02-18T05:52:00;12.70;99.90
17807;DHT22;9027;48.938;9.182;2023-02-18T05:53:32;12.90;99.90
17807;DHT22;9027;48.938;9.182;2023-02-18T05:55:06;13.00;99.90
17807;DHT22;9027;48.938;9.182;2023-02-18T05:56:38;13.10;99.90
17807;DHT22;9027;48.938;9.182;2023-02-18T05:58:10;13.20;99.90
17807;DHT22;9027;48.938;9.182;2023-02-18T05:59:43;13.40;99.90
17807;DHT22;9027;48.938;9.182;2023-02-18T06:01:15;13.40;99.90
17807;DHT22;9027;48.938;9.182;2023-02-18T06:02:46;13.40;99.90
17807;DHT22;9027;48.938;9.182;2023-02-18T06:04:18;13.40;99.90
17807;DHT22;9027;48.938;9.182;2023-02-18T06:05:50;13.40;99.90
17807;DHT22;9027;48.938;9.182;2023-02-18T06:07:22;13.50;99.90
17807;DHT22;9027;48.938;9.182;2023-02-18T06:08:54;13.40;99.90
17807;DHT22;9027;48.938;9.182;2023-02-18T06:10:27;13.50;99.90
17807;DHT22;9027;48.938;9.182;2023-02-18T06:11:59;13.50;99.90
17807;DHT22;9027;48.938;9.182;2023-02-18T06:13:30;13.50;99.90
17807;DHT22;9027;48.938;9.182;2023-02-18T06:15:02;13.40;99.90
17807;DHT22;9027;48.938;9.182;2023-02-18T06:16:34;13.30;99.90
17807;DHT22;9027;48.938;9.182;2023-02-18T06:18:05;13.20;99.90
17807;DHT22;9027;48.938;9.182;2023-02-18T06:19:37;13.30;99.90
17807;DHT22;9027;48.938;9.182;2023-02-18T06:21:09;13.20;99.90
17807;DHT22;9027;48.938;9.182;2023-02-18T06:22:40;13.10;99.90
17807;DHT22;9027;48.938;9.182;2023-02-18T06:24:12;13.00;99.90
17807;DHT22;9027;48.938;9.182;2023-02-18T06:25:47;12.80;99.90
17807;DHT22;9027;48.938;9.182;2023-02-18T06:27:20;12.70;99.90
17807;DHT22;9027;48.938;9.182;2023-02-18T06:28:52;12.70;99.90
17807;DHT22;9027;48.938;9.182;2023-02-18T06:30:24;12.70;99.90
17807;DHT22;9027;48.938;9.182;2023-02-18T06:31:56;12.70;99.90
17807;DHT22;9027;48.938;9.182;2023-02-18T06:33:27;12.80;99.90
17807;DHT22;9027;48.938;9.182;2023-02-18T06:34:59;12.70;99.90
17807;DHT22;9027;48.938;9.182;2023-02-18T06:36:31;12.70;99.90
17807;DHT22;9027;48.938;9.182;2023-02-18T06:38:03;12.70;99.90
17807;DHT22;9027;48.938;9.182;2023-02-18T06:39:35;12.70;99.90
17807;DHT22;9027;48.938;9.182;2023-02-18T06:41:08;12.70;99.90
17807;DHT22;9027;48.938;9.182;2023-02-18T06:42:41;12.70;99.90
17807;DHT22;9027;48.938;9.182;2023-02-18T06:44:11;12.60;99.90
17807;DHT22;9027;48.938;9.182;2023-02-18T06:45:44;12.50;99.90
17807;DHT22;9027;48.938;9.182;2023-02-18T06:47:16;12.50;99.90
17807;DHT22;9027;48.938;9.182;2023-02-18T06:48:48;12.60;99.90
17807;DHT22;9027;48.938;9.182;2023-02-18T06:50:20;12.50;99.90
17807;DHT22;9027;48.938;9.182;2023-02-18T06:51:52;12.50;99.90
17807;DHT22;9027;48.938;9.182;2023-02-18T06:53:24;12.50;99.90
17807;DHT22;9027;48.938;9.182;2023-02-18T06:54:56;12.50;99.90
17807;DHT22;9027;48.938;9.182;2023-02-18T06:56:29;12.50;99.90
17807;DHT22;9027;48.938;9.182;2023-02-18T06:58:01;12.40;99.90
17807;DHT22;9027;48.938;9.182;2023-02-18T06:59:32;12.40;99.90
17807;DHT22;9027;48.938;9.182;2023-02-18T07:01:04;12.40;99.90
17807;DHT22;9027;48.938;9.182;2023-02-18T07:02:35;12.30;99.90
17807;DHT22;9027;48.938;9.182;2023-02-18T07:04:07;12.40;99.90
17807;DHT22;9027;48.938;9.182;2023-02-18T07:05:39;12.40;99.90
17807;DHT22;9027;48.938;9.182;2023-02-18T07:07:10;12.40;99.90
17807;DHT22;9027;48.938;9.182;2023-02-18T07:08:42;12.40;99.90
17807;DHT22;9027;48.938;9.182;2023-02-18T07:10:14;12.40;99.90
17807;DHT22;9027;48.938;9.182;2023-02-18T07:11:46;12.40;99.90
17807;DHT22;9027;48.938;9.182;2023-02-18T07:13:18;12.40;99.90
17807;DHT22;9027;48.938;9.182;2023-02-18T07:14:50;12.40;99.90
17807;DHT22;9027;48.938;9.182;2023-02-18T07:16:22;12.40;99.90
17807;DHT22;9027;48.938;9.182;2023-02-18T07:17:54;12.40;99.90
17807;DHT22;9027;48.938;9.182;2023-02-18T07:19:26;12.40;99.90
17807;DHT22;9027;48.938;9.182;2023-02-18T07:20:58;12.40;99.90
17807;DHT22;9027;48.938;9.182;2023-02-18T07:22:30;12.40;99.90
17807;DHT22;9027;48.938;9.182;2023-02-18T07:24:02;12.40;99.90
17807;DHT22;9027;48.938;9.182;2023-02-18T07:25:34;12.40;99.90
17807;DHT22;9027;48.938;9.182;2023-02-18T07:27:07;12.40;99.90
17807;DHT22;9027;48.938;9.182;2023-02-18T07:28:39;12.40;99.90
17807;DHT22;9027;48.938;9.182;2023-02-18T07:30:12;12.40;99.90
17807;DHT22;9027;48.938;9.182;2023-02-18T07:31:44;12.30;99.90
17807;DHT22;9027;48.938;9.182;2023-02-18T07:33:15;12.40;99.90
17807;DHT22;9027;48.938;9.182;2023-02-18T07:34:46;12.40;99.90
17807;DHT22;9027;48.938;9.182;2023-02-18T07:36:18;12.50;99.90
17807;DHT22;9027;48.938;9.182;2023-02-18T07:37:50;12.40;99.90
17807;DHT22;9027;48.938;9.182;2023-02-18T07:39:22;12.50;99.90
17807;DHT22;9027;48.938;9.182;2023-02-18T07:40:54;12.50;99.90
17807;DHT22;9027;48.938;9.182;2023-02-18T07:42:28;12.60;99.90
17807;DHT22;9027;48.938;9.182;2023-02-18T07:43:59;12.60;99.90
17807;DHT22;9027;48.938;9.182;2023-02-18T07:45:31;12.60;99.90
17807;DHT22;9027;48.938;9.182;2023-02-18T07:47:02;12.60;99.90
17807;DHT22;9027;48.938;9.182;2023-02-18T07:48:35;12.70;99.90
17807;DHT22;9027;48.938;9.182;2023-02-18T07:50:08;12.70;99.90
17807;DHT22;9027;48.938;9.182;2023-02-18T07:51:40;12.70;99.90
17807;DHT22;9027;48.938;9.182;2023-02-18T07:53:13;12.70;99.90
17807;DHT22;9027;48.938;9.182;2023-02-18T07:54:45;12.70;99.90
17807;DHT22;9027;48.938;9.182;2023-02-18T07:56:17;12.80;99.90
17807;DHT22;9027;48.938;9.182;2023-02-18T07:57:50;12.80;99.90
17807;DHT22;9027;48.938;9.182;2023-02-18T07:59:30;12.80;99.90
17807;DHT22;9027;48.938;9.182;2023-02-18T08:01:04;12.80;99.90
17807;DHT22;9027;48.938;9.182;2023-02-18T08:02:36;12.80;99.90
17807;DHT22;9027;48.938;9.182;2023-02-18T08:04:08;12.80;99.90
17807;DHT22;9027;48.938;9.182;2023-02-18T08:05:40;12.80;99.90
17807;DHT22;9027;48.938;9.182;2023-02-18T08:07:12;12.80;99.90
17807;DHT22;9027;48.938;9.182;2023-02-18T08:08:45;12.80;99.90
17807;DHT22;9027;48.938;9.182;2023-02-18T08:10:17;12.80;99.90
17807;DHT22;9027;48.938;9.182;2023-02-18T08:11:48;12.80;99.90
17807;DHT22;9027;48.938;9.182;2023-02-18T08:13:21;12.90;99.90
17807;DHT22;9027;48.938;9.182;2023-02-18T08:14:53;12.80;99.90
17807;DHT22;9027;48.938;9.182;2023-02-18T08:16:25;12.90;99.90
17807;DHT22;9027;48.938;9.182;2023-02-18T08:17:57;12.90;99.90
17807;DHT22;9027;48.938;9.182;2023-02-18T08:19:29;12.90;99.90
17807;DHT22;9027;48.938;9.182;2023-02-18T08:21:01;12.90;99.90
17807;DHT22;9027;48.938;9.182;2023-02-18T08:22:32;12.90;99.90
17807;DHT22;9027;48.938;9.182;2023-02-18T08:24:05;13.00;99.90
17807;DHT22;9027;48.938;9.182;2023-02-18T08:25:37;13.00;99.90
17807;DHT22;9027;48.938;9.182;2023-02-18T08:27:09;13.10;99.90
17807;DHT22;9027;48.938;9.182;2023-02-18T08:28:45;13.10;99.90
17807;DHT22;9027;48.938;9.182;2023-02-18T08:30:17;13.10;99.90
17807;DHT22;9027;48.938;9.182;2023-02-18T08:31:49;13.10;99.90
17807;DHT22;9027;48.938;9.182;2023-02-18T08:33:22;13.20;99.90
17807;DHT22;9027;48.938;9.182;2023-02-18T08:34:54;13.20;99.90
17807;DHT22;9027;48.938;9.182;2023-02-18T08:36:27;13.30;99.90
17807;DHT22;9027;48.938;9.182;2023-02-18T08:37:59;13.40;99.90
17807;DHT22;9027;48.938;9.182;2023-02-18T08:39:33;13.50;99.90
17807;DHT22;9027;48.938;9.182;2023-02-18T08:41:07;13.50;99.90
17807;DHT22;9027;48.938;9.182;2023-02-18T08:42:39;13.60;99.90
17807;DHT22;9027;48.938;9.182;2023-02-18T08:44:13;13.60;99.90
17807;DHT22;9027;48.938;9.182;2023-02-18T08:45:45;13.60;99.90
17807;DHT22;9027;48.938;9.182;2023-02-18T08:47:17;13.70;99.90
17807;DHT22;9027;48.938;9.182;2023-02-18T08:48:48;13.70;99.90
17807;DHT22;9027;48.938;9.182;2023-02-18T08:50:20;13.80;99.90
17807;DHT22;9027;48.938;9.182;2023-02-18T08:51:55;13.90;99.90
17807;DHT22;9027;48.938;9.182;2023-02-18T08:53:27;13.90;99.90
17807;DHT22;9027;48.938;9.182;2023-02-18T08:54:59;13.90;99.90
17807;DHT22;9027;48.938;9.182;2023-02-18T08:56:31;13.90;99.90
17807;DHT22;9027;48.938;9.182;2023-02-18T08:58:05;13.90;99.90
17807;DHT22;9027;48.938;9.182;2023-02-18T08:59:41;13.90;99.90
17807;DHT22;9027;48.938;9.182;2023-02-18T09:01:13;14.00;99.90
17807;DHT22;9027;48.938;9.182;2023-02-18T09:02:45;14.00;99.90
17807;DHT22;9027;48.938;9.182;2023-02-18T09:04:17;14.00;99.90
17807;DHT22;9027;48.938;9.182;2023-02-18T09:05:50;14.00;99.90
17807;DHT22;9027;48.938;9.182;2023-02-18T09:07:22;14.00;99.90
17807;DHT22;9027;48.938;9.182;2023-02-18T09:08:54;14.00;99.90
17807;DHT22;9027;48.938;9.182;2023-02-18T09:10:26;14.10;99.90
17807;DHT22;9027;48.938;9.182;2023-02-18T09:11:58;14.10;99.90
17807;DHT22;9027;48.938;9.182;2023-02-18T09:13:30;14.10;99.90
17807;DHT22;9027;48.938;9.182;2023-02-18T09:15:04;14.20;99.90
17807;DHT22;9027;48.938;9.182;2023-02-18T09:16:37;14.10;99.90
17807;DHT22;9027;48.938;9.182;2023-02-18T09:18:09;14.20;99.90
17807;DHT22;9027;48.938;9.182;2023-02-18T09:19:41;14.20;99.90
17807;DHT22;9027;48.938;9.182;2023-02-18T09:21:15;14.20;99.90
17807;DHT22;9027;48.938;9.182;2023-02-18T09:22:48;14.20;99.90
17807;DHT22;9027;48.938;9.182;2023-02-18T09:24:20;14.30;99.90
17807;DHT22;9027;48.938;9.182;2023-02-18T09:25:54;14.30;99.90
17807;DHT22;9027;48.938;9.182;2023-02-18T09:27:26;14.30;99.90
17807;DHT22;9027;48.938;9.182;2023-02-18T09:28:57;14.30;99.90
17807;DHT22;9027;48.938;9.182;2023-02-18T09:30:31;14.40;99.90
17807;DHT22;9027;48.938;9.182;2023-02-18T09:32:03;14.40;99.90
17807;DHT22;9027;48.938;9.182;2023-02-18T09:33:36;14.50;99.90
17807;DHT22;9027;48.938;9.182;2023-02-18T09:35:08;14.50;99.90
17807;DHT22;9027;48.938;9.182;2023-02-18T09:36:40;14.50;99.90
17807;DHT22;9027;48.938;9.182;2023-02-18T09:38:14;14.50;99.90
17807;DHT22;9027;48.938;9.182;2023-02-18T09:39:46;14.50;99.90
17807;DHT22;9027;48.938;9.182;2023-02-18T09:41:30;14.60;99.90
17807;DHT22;9027;48.938;9.182;2023-02-18T09:43:05;14.70;99.90
17807;DHT22;9027;48.938;9.182;2023-02-18T09:44:41;14.70;99.90
17807;DHT22;9027;48.938;9.182;2023-02-18T09:46:18;14.70;99.90
17807;DHT22;9027;48.938;9.182;2023-02-18T09:47:51;14.80;99.90
17807;DHT22;9027;48.938;9.182;2023-02-18T09:49:26;14.80;99.90
17807;DHT22;9027;48.938;9.182;2023-02-18T09:50:58;14.80;99.90
17807;DHT22;9027;48.938;9.182;2023-02-18T09:52:33;14.80;99.90
17807;DHT22;9027;48.938;9.182;2023-02-18T09:54:09;14.90;99.90
17807;DHT22;9027;48.938;9.182;2023-02-18T09:55:42;15.00;99.90
17807;DHT22;9027;48.938;9.182;2023-02-18T09:57:21;15.00;99.90
17807;DHT22;9027;48.938;9.182;2023-02-18T09:58:57;15.10;99.90
17807;DHT22;9027;48.938;9.182;2023-02-18T10:00:32;15.10;99.90
17807;DHT22;9027;48.938;9.182;2023-02-18T10:02:09;15.00;99.90
17807;DHT22;9027;48.938;9.182;2023-02-18T10:03:46;15.00;99.90
17807;DHT22;9027;48.938;9.182;2023-02-18T10:05:18;15.00;99.90
17807;DHT22;9027;48.938;9.182;2023-02-18T10:06:52;15.00;99.90
17807;DHT22;9027;48.938;9.182;2023-02-18T10:08:26;14.90;99.90